createdAt,value
2022-10-21T04:30:41.075Z,14.47
2022-10-21T04:31:41.150Z,14.50
2022-10-21T04:32:41.278Z,14.54
2022-10-21T04:33:41.035Z,14.52
2022-10-21T04:34:41.030Z,14.45
2022-10-21T04:35:41.003Z,14.46
2022-10-21T04:36:40.975Z,14.50
2022-10-21T04:37:41.033Z,14.55
2022-10-21T04:38:40.990Z,14.55
2022-10-21T04:39:40.942Z,14.57
2022-10-21T04:40:40.933Z,14.51
2022-10-21T04:41:40.931Z,14.47
2022-10-21T04:42:40.927Z,14.52
2022-10-21T04:43:40.971Z,14.55
2022-10-21T04:44:40.890Z,14.55
2022-10-21T04:45:40.916Z,14.52
2022-10-21T04:46:40.888Z,14.51
2022-10-21T04:47:41.183Z,14.55
2022-10-21T04:48:40.864Z,14.58
2022-10-21T04:49:40.869Z,14.52
2022-10-21T04:50:40.836Z,14.54
2022-10-21T04:51:40.834Z,14.55
2022-10-21T04:52:41.177Z,14.61
2022-10-21T04:53:40.793Z,14.68
2022-10-21T04:54:40.805Z,14.54
2022-10-21T04:55:40.802Z,14.65
2022-10-21T04:56:40.798Z,14.57
2022-10-21T04:57:40.767Z,14.58
2022-10-21T04:58:40.752Z,14.64
2022-10-21T04:59:40.728Z,14.68
2022-10-21T05:00:40.766Z,14.57
2022-10-21T05:01:40.739Z,14.65
2022-10-21T05:02:41.232Z,14.57
2022-10-21T05:03:40.703Z,14.61
2022-10-21T05:04:40.670Z,14.61
2022-10-21T05:05:40.676Z,14.61
2022-10-21T05:06:40.653Z,14.69
2022-10-21T05:07:40.640Z,14.60
2022-10-21T05:08:40.705Z,14.60
2022-10-21T05:09:40.632Z,14.57
2022-10-21T05:10:40.623Z,14.62
2022-10-21T05:11:40.610Z,14.60
2022-10-21T05:12:40.605Z,14.64
2022-10-21T05:13:40.577Z,14.62
2022-10-21T05:14:40.572Z,14.62
2022-10-21T05:15:40.576Z,14.65
2022-10-21T05:16:40.571Z,14.61
2022-10-21T05:17:40.838Z,14.54
2022-10-21T05:18:40.534Z,14.58
2022-10-21T05:19:40.517Z,14.64
2022-10-21T05:20:40.502Z,14.62
2022-10-21T05:21:40.522Z,14.70
2022-10-21T05:22:40.858Z,14.69
2022-10-21T05:23:40.565Z,14.70
2022-10-21T05:24:40.470Z,14.68
2022-10-21T05:25:40.444Z,14.64
2022-10-21T05:26:40.454Z,14.69
2022-10-21T05:27:40.428Z,14.72
2022-10-21T05:28:40.428Z,14.58
2022-10-21T05:29:40.409Z,14.68
2022-10-21T05:31:40.381Z,14.65
2022-10-21T05:32:40.730Z,14.75
2022-10-21T05:33:40.379Z,14.65
2022-10-21T05:34:40.366Z,14.73
2022-10-21T05:35:40.360Z,14.61
2022-10-21T05:36:40.357Z,14.65
2022-10-21T05:37:40.316Z,14.69
2022-10-21T05:38:40.307Z,14.68
2022-10-21T05:40:40.308Z,14.69
2022-10-21T05:41:41.992Z,14.69
2022-10-21T05:42:40.577Z,14.69
2022-10-21T05:43:40.255Z,14.64
2022-10-21T05:44:40.243Z,14.73
2022-10-21T05:45:40.248Z,14.77
2022-10-21T05:46:40.221Z,14.69
2022-10-21T05:47:40.224Z,14.72
2022-10-21T05:48:40.280Z,14.72
2022-10-21T05:49:40.196Z,14.75
2022-10-21T05:50:40.227Z,14.72
2022-10-21T05:51:40.194Z,14.69
2022-10-21T05:52:40.370Z,14.64
2022-10-21T05:53:40.158Z,14.70
2022-10-21T05:54:40.132Z,14.75
2022-10-21T05:55:40.127Z,14.73
2022-10-21T05:56:40.136Z,14.68
2022-10-21T05:57:40.239Z,14.68
2022-10-21T05:58:40.111Z,14.75
2022-10-21T05:59:40.104Z,14.68
2022-10-21T06:00:40.106Z,14.62
2022-10-21T06:01:40.056Z,14.65
2022-10-21T06:02:40.349Z,14.65
2022-10-21T06:03:40.047Z,14.64
2022-10-21T06:04:40.061Z,14.68
2022-10-21T06:05:40.026Z,14.75
2022-10-21T06:06:40.028Z,14.69
2022-10-21T06:07:40.231Z,14.75
2022-10-21T06:08:40.056Z,14.69
2022-10-21T06:09:39.972Z,14.72
2022-10-21T06:10:39.964Z,14.72
2022-10-21T06:11:39.980Z,14.78
2022-10-21T06:12:39.963Z,14.68
2022-10-21T06:13:39.955Z,14.75
2022-10-21T06:14:39.924Z,14.75
2022-10-21T06:15:39.918Z,14.69
2022-10-21T06:16:39.905Z,14.73
2022-10-21T06:17:40.397Z,14.72
2022-10-21T06:18:39.877Z,14.70
2022-10-21T06:19:39.890Z,14.72
2022-10-21T06:20:39.857Z,14.78
2022-10-21T06:21:39.867Z,14.81
2022-10-21T06:22:39.854Z,14.75
2022-10-21T06:23:39.856Z,14.70
2022-10-21T06:24:39.857Z,14.75
2022-10-21T06:25:39.819Z,14.72
2022-10-21T06:26:39.795Z,14.78
2022-10-21T06:27:40.106Z,14.73
2022-10-21T06:28:39.775Z,14.77
2022-10-21T06:29:39.763Z,14.75
2022-10-21T06:30:39.808Z,14.70
2022-10-21T06:31:39.769Z,14.80
2022-10-21T06:32:39.734Z,14.83
2022-10-21T06:33:39.722Z,14.73
2022-10-21T06:34:39.733Z,14.72
2022-10-21T06:35:39.738Z,14.73
2022-10-21T06:36:39.721Z,14.77
2022-10-21T06:37:39.997Z,14.78
2022-10-21T06:38:39.682Z,14.83
2022-10-21T06:39:39.688Z,14.75
2022-10-21T06:40:39.669Z,14.78
2022-10-21T06:41:39.636Z,14.77
2022-10-21T06:42:39.624Z,14.80
2022-10-21T06:43:39.631Z,14.83
2022-10-21T06:44:39.632Z,14.78
2022-10-21T06:45:39.588Z,14.89
2022-10-21T06:46:39.575Z,14.81
2022-10-21T06:47:40.014Z,14.91
2022-10-21T06:48:39.553Z,14.81
2022-10-21T06:49:39.558Z,14.91
2022-10-21T06:50:39.571Z,14.91
2022-10-21T06:51:39.526Z,14.84
2022-10-21T06:52:39.511Z,14.91
2022-10-21T06:53:39.723Z,14.92
2022-10-21T06:54:39.540Z,14.92
2022-10-21T06:55:39.486Z,14.92
2022-10-21T06:56:39.469Z,14.86
2022-10-21T06:57:39.869Z,14.92
2022-10-21T06:58:39.453Z,14.92
2022-10-21T06:59:39.445Z,14.98
2022-10-21T07:00:39.455Z,14.84
2022-10-21T07:01:59.265Z,14.91
2022-10-21T07:02:40.683Z,14.92
2022-10-21T07:03:39.399Z,14.98
2022-10-21T07:04:39.381Z,14.99
2022-10-21T07:05:39.374Z,14.99
2022-10-21T07:06:39.421Z,15.01
2022-10-21T07:07:39.527Z,15.02
2022-10-21T07:08:53.901Z,14.98
2022-10-21T07:09:40.396Z,14.95
2022-10-21T07:10:39.358Z,14.98
2022-10-21T07:11:39.314Z,15.06
2022-10-21T07:12:39.344Z,14.95
2022-10-21T07:13:39.288Z,14.96
2022-10-21T07:14:39.279Z,15.07
2022-10-21T07:15:39.291Z,15.02
2022-10-21T07:16:39.258Z,15.02
2022-10-21T07:17:39.603Z,14.91
2022-10-21T07:18:41.902Z,15.03
2022-10-21T07:19:39.234Z,14.96
2022-10-21T07:20:39.214Z,14.94
2022-10-21T07:21:39.207Z,14.99
2022-10-21T07:22:39.222Z,14.96
2022-10-21T07:23:39.198Z,15.03
2022-10-21T07:24:39.192Z,15.06
2022-10-21T07:25:39.179Z,15.10
2022-10-21T07:26:39.170Z,15.06
2022-10-21T07:27:41.253Z,15.03
2022-10-21T07:28:39.154Z,15.13
2022-10-21T07:29:39.146Z,15.09
2022-10-21T07:30:39.118Z,15.07
2022-10-21T07:31:39.117Z,15.07
2022-10-21T07:32:39.087Z,15.10
2022-10-21T07:33:39.085Z,15.06
2022-10-21T07:34:39.085Z,15.10
2022-10-21T07:35:39.054Z,15.06
2022-10-21T07:36:39.048Z,15.09
2022-10-21T07:37:39.248Z,15.06
2022-10-21T07:38:39.018Z,15.07
2022-10-21T07:39:39.028Z,15.09
2022-10-21T07:40:39.027Z,15.07
2022-10-21T07:41:38.991Z,15.03
2022-10-21T07:42:38.991Z,15.03
2022-10-21T07:43:38.971Z,15.03
2022-10-21T07:44:38.960Z,15.10
2022-10-21T07:45:38.955Z,15.10
2022-10-21T07:46:38.971Z,15.09
2022-10-21T07:47:39.201Z,15.14
2022-10-21T07:48:38.914Z,15.07
2022-10-21T07:49:38.930Z,15.07
2022-10-21T07:50:38.885Z,15.11
2022-10-21T07:51:38.895Z,15.10
2022-10-21T07:52:41.735Z,15.14
2022-10-21T07:53:39.874Z,15.13
2022-10-21T07:54:38.866Z,15.11
2022-10-21T07:55:38.851Z,15.13
2022-10-21T07:56:38.827Z,15.14
2022-10-21T07:57:38.833Z,14.98
2022-10-21T07:58:38.820Z,15.19
2022-10-21T07:59:38.809Z,15.13
2022-10-21T08:00:38.828Z,15.13
2022-10-21T08:01:38.942Z,15.14
2022-10-21T08:02:38.986Z,15.06
2022-10-21T08:03:38.751Z,15.06
2022-10-21T08:04:38.782Z,15.17
2022-10-21T08:05:38.729Z,15.17
2022-10-21T08:06:38.755Z,15.20
2022-10-21T08:07:38.736Z,15.13
2022-10-21T08:08:38.713Z,15.13
2022-10-21T08:09:38.685Z,15.11
2022-10-21T08:10:38.709Z,15.09
2022-10-21T08:11:38.667Z,15.07
2022-10-21T08:12:39.077Z,15.14
2022-10-21T08:13:38.688Z,15.14
2022-10-21T08:14:38.646Z,15.13
2022-10-21T08:15:38.624Z,15.09
2022-10-21T08:16:38.611Z,15.03
2022-10-21T08:17:38.602Z,15.10
2022-10-21T08:18:38.603Z,15.11
2022-10-21T08:19:38.612Z,15.11
2022-10-21T08:20:38.561Z,15.13
2022-10-21T08:21:38.556Z,15.11
2022-10-21T08:22:38.843Z,15.06
2022-10-21T08:23:38.532Z,15.10
2022-10-21T08:24:41.453Z,15.16
2022-10-21T08:25:38.530Z,15.14
2022-10-21T08:26:38.498Z,15.17
2022-10-21T08:27:38.490Z,15.17
2022-10-21T08:28:38.477Z,15.11
2022-10-21T08:29:40.055Z,15.19
2022-10-21T08:30:38.473Z,15.10
2022-10-21T08:31:38.590Z,15.20
2022-10-21T08:32:38.672Z,15.10
2022-10-21T08:33:38.419Z,15.21
2022-10-21T08:34:38.432Z,15.14
2022-10-21T08:35:38.408Z,15.14
2022-10-21T08:36:38.390Z,15.21
2022-10-21T08:37:38.423Z,15.17
2022-10-21T08:38:38.363Z,15.17
2022-10-21T08:39:38.379Z,15.17
2022-10-21T08:40:38.344Z,15.29
2022-10-21T08:41:38.339Z,15.23
2022-10-21T08:42:38.550Z,15.19
2022-10-21T08:43:38.357Z,15.17
2022-10-21T08:44:38.303Z,15.17
2022-10-21T08:45:38.293Z,15.14
2022-10-21T08:46:38.299Z,15.23
2022-10-21T08:47:38.616Z,15.27
2022-10-21T08:48:38.286Z,15.07
2022-10-21T08:49:38.290Z,15.20
2022-10-21T08:50:38.230Z,15.27
2022-10-21T08:51:38.226Z,15.23
2022-10-21T08:52:38.214Z,15.25
2022-10-21T08:53:38.213Z,15.31
2022-10-21T08:54:38.206Z,15.19
2022-10-21T08:55:38.235Z,15.20
2022-10-21T08:56:38.187Z,15.29
2022-10-21T08:57:38.383Z,15.25
2022-10-21T08:58:38.151Z,15.21
2022-10-21T08:59:38.141Z,15.23
2022-10-21T09:00:38.171Z,15.28
2022-10-21T09:01:38.131Z,15.31
2022-10-21T09:02:38.143Z,15.21
2022-10-21T09:03:38.105Z,15.23
2022-10-21T09:04:38.086Z,15.25
2022-10-21T09:05:38.098Z,15.25
2022-10-21T09:06:38.081Z,15.27
2022-10-21T09:07:38.383Z,15.31
2022-10-21T09:08:38.070Z,15.27
2022-10-21T09:09:38.031Z,15.27
2022-10-21T09:10:38.047Z,15.31
2022-10-21T09:11:38.010Z,15.27
2022-10-21T09:12:38.000Z,15.19
2022-10-21T09:13:38.007Z,15.27
2022-10-21T09:14:37.980Z,15.20
2022-10-21T09:15:37.985Z,15.28
2022-10-21T09:16:37.952Z,15.31
2022-10-21T09:17:38.327Z,15.31
2022-10-21T09:18:37.972Z,15.27
2022-10-21T09:19:37.931Z,15.34
2022-10-21T09:20:37.912Z,15.25
2022-10-21T09:21:37.902Z,15.20
2022-10-21T09:22:37.890Z,15.32
2022-10-21T09:23:37.906Z,15.35
2022-10-21T09:24:37.874Z,15.31
2022-10-21T09:25:37.860Z,15.31
2022-10-21T09:26:37.864Z,15.29
2022-10-21T09:27:55.138Z,15.35
2022-10-21T09:28:38.834Z,15.28
2022-10-21T09:29:37.822Z,15.28
2022-10-21T09:30:37.823Z,15.44
2022-10-21T09:31:37.801Z,15.38
2022-10-21T09:32:37.774Z,15.35
2022-10-21T09:33:37.794Z,15.41
2022-10-21T09:34:37.798Z,15.38
2022-10-21T09:35:37.754Z,15.36
2022-10-21T09:36:37.737Z,15.34
2022-10-21T09:37:38.109Z,15.41
2022-10-21T09:38:37.717Z,15.38
2022-10-21T09:39:37.750Z,15.32
2022-10-21T09:40:37.691Z,15.43
2022-10-21T09:41:37.694Z,15.38
2022-10-21T09:42:46.786Z,15.38
2022-10-21T09:43:38.707Z,15.39
2022-10-21T09:44:37.670Z,15.39
2022-10-21T09:45:37.651Z,15.43
2022-10-21T09:46:37.637Z,15.39
2022-10-21T09:47:37.615Z,15.44
2022-10-21T09:48:50.205Z,15.44
2022-10-21T09:50:06.937Z,15.41
2022-10-21T09:50:38.609Z,15.46
2022-10-21T09:51:37.596Z,15.49
2022-10-21T09:52:37.948Z,15.47
2022-10-21T09:53:37.568Z,15.49
2022-10-21T09:54:37.548Z,15.46
2022-10-21T09:55:37.547Z,15.53
2022-10-21T09:56:37.527Z,15.47
2022-10-21T09:57:37.527Z,15.57
2022-10-21T09:58:37.511Z,15.54
2022-10-21T09:59:37.550Z,15.49
2022-10-21T10:00:37.480Z,15.47
2022-10-21T10:01:37.520Z,15.53
2022-10-21T10:02:37.776Z,15.39
2022-10-21T10:03:37.455Z,15.54
2022-10-21T10:04:37.428Z,15.49
2022-10-21T10:05:37.431Z,15.50
2022-10-21T10:06:37.449Z,15.53
2022-10-21T10:07:37.397Z,15.51
2022-10-21T10:08:37.570Z,15.50
2022-10-21T10:09:37.399Z,15.49
2022-10-21T10:10:37.392Z,15.41
2022-10-21T10:11:37.352Z,15.43
2022-10-21T10:12:37.725Z,15.51
2022-10-21T10:13:37.335Z,15.49
2022-10-21T10:14:37.335Z,15.49
2022-10-21T10:15:37.534Z,15.49
2022-10-21T10:16:37.307Z,15.53
2022-10-21T10:17:37.335Z,15.47
2022-10-21T10:18:37.303Z,15.51
2022-10-21T10:19:37.367Z,15.56
2022-10-21T10:20:37.264Z,15.59
2022-10-21T10:21:37.282Z,15.54
2022-10-21T10:22:37.718Z,15.59
2022-10-21T10:23:37.233Z,15.57
2022-10-21T10:24:37.219Z,15.50
2022-10-21T10:25:37.199Z,15.57
2022-10-21T10:26:37.196Z,15.64
2022-10-21T10:27:37.224Z,15.67
2022-10-21T10:28:37.235Z,15.67
2022-10-21T10:29:37.166Z,15.60
2022-10-21T10:30:37.155Z,15.64
2022-10-21T10:31:37.138Z,15.72
2022-10-21T10:32:37.428Z,15.64
2022-10-21T10:33:37.153Z,15.65
2022-10-21T10:34:37.115Z,15.67
2022-10-21T10:35:37.141Z,15.76
2022-10-21T10:36:37.099Z,15.71
2022-10-21T10:37:37.142Z,15.75
2022-10-21T10:38:37.174Z,15.75
2022-10-21T10:39:37.085Z,15.78
2022-10-21T10:40:37.037Z,15.82
2022-10-21T10:41:37.061Z,15.84
2022-10-21T10:42:37.452Z,15.82
2022-10-21T10:43:37.006Z,15.87
2022-10-21T10:44:37.022Z,15.80
2022-10-21T10:45:37.015Z,15.90
2022-10-21T10:46:37.061Z,15.86
2022-10-21T10:47:37.388Z,15.89
2022-10-21T10:48:36.961Z,15.84
2022-10-21T10:49:36.972Z,15.83
2022-10-21T10:50:36.935Z,15.83
2022-10-21T10:51:36.940Z,15.92
2022-10-21T10:52:36.936Z,15.84
2022-10-21T10:53:36.908Z,15.92
2022-10-21T10:54:37.021Z,15.92
2022-10-21T10:55:36.926Z,15.96
2022-10-21T10:56:36.883Z,15.84
2022-10-21T10:57:44.477Z,15.89
2022-10-21T10:58:37.859Z,15.89
2022-10-21T10:59:36.851Z,15.94
2022-10-21T11:00:36.832Z,15.93
2022-10-21T11:01:36.863Z,15.94
2022-10-21T11:02:36.806Z,15.93
2022-10-21T11:03:40.483Z,15.96
2022-10-21T11:04:36.809Z,15.97
2022-10-21T11:05:36.778Z,16.02
2022-10-21T11:06:36.770Z,16.02
2022-10-21T11:07:37.097Z,16.04
2022-10-21T11:08:36.844Z,16.20
2022-10-21T11:09:36.752Z,16.20
2022-10-21T11:10:36.874Z,16.20
2022-10-21T11:11:36.710Z,16.14
2022-10-21T11:12:36.707Z,16.20
2022-10-21T11:13:40.070Z,16.23
2022-10-21T11:14:37.680Z,16.25
2022-10-21T11:15:36.708Z,16.24
2022-10-21T11:16:45.118Z,16.25
2022-10-21T11:17:37.947Z,16.21
2022-10-21T11:18:36.684Z,16.20
2022-10-21T11:19:36.636Z,16.21
2022-10-21T11:20:36.621Z,16.35
2022-10-21T11:21:36.629Z,16.35
2022-10-21T11:22:36.592Z,16.35
2022-10-21T11:23:36.595Z,16.27
2022-10-21T11:24:36.574Z,16.28
2022-10-21T11:25:36.571Z,16.34
2022-10-21T11:26:36.688Z,16.38
2022-10-21T11:27:36.837Z,16.42
2022-10-21T11:28:36.531Z,16.48
2022-10-21T11:29:36.520Z,16.50
2022-10-21T11:30:36.511Z,16.48
2022-10-21T11:31:43.967Z,16.50
2022-10-21T11:32:37.491Z,16.53
2022-10-21T11:33:36.516Z,16.61
2022-10-21T11:34:36.468Z,16.58
2022-10-21T11:35:36.462Z,16.56
2022-10-21T11:36:36.462Z,16.56
2022-10-21T11:37:36.759Z,16.57
2022-10-21T11:38:36.438Z,16.57
2022-10-21T11:39:36.445Z,16.53
2022-10-21T11:40:36.401Z,16.53
2022-10-21T11:41:36.405Z,16.50
2022-10-21T11:42:36.797Z,16.52
2022-10-21T11:43:36.403Z,16.60
2022-10-21T11:44:36.360Z,16.61
2022-10-21T11:45:36.376Z,16.68
2022-10-21T11:46:36.333Z,16.64
2022-10-21T11:47:36.347Z,16.57
2022-10-21T11:48:36.347Z,16.64
2022-10-21T11:49:37.361Z,16.67
2022-10-21T11:50:36.319Z,16.75
2022-10-21T11:51:36.280Z,16.83
2022-10-21T11:52:36.432Z,16.91
2022-10-21T11:53:36.271Z,16.96
2022-10-21T11:54:36.281Z,17.06
2022-10-21T11:55:36.239Z,17.08
2022-10-21T11:56:36.250Z,17.08
2022-10-21T11:57:36.216Z,17.00
2022-10-21T11:58:36.327Z,17.12
2022-10-21T11:59:36.194Z,17.14
2022-10-21T12:00:36.188Z,17.14
2022-10-21T12:01:36.204Z,17.30
2022-10-21T12:02:36.545Z,17.25
2022-10-21T12:03:36.151Z,17.28
2022-10-21T12:04:36.140Z,17.34
2022-10-21T12:05:36.148Z,17.28
2022-10-21T12:06:36.119Z,17.28
2022-10-21T12:07:36.126Z,17.31
2022-10-21T12:08:38.345Z,17.31
2022-10-21T12:09:36.108Z,17.31
2022-10-21T12:10:36.074Z,17.43
2022-10-21T12:11:36.063Z,17.36
2022-10-21T12:12:36.306Z,17.43
2022-10-21T12:13:36.035Z,17.46
2022-10-21T12:14:36.141Z,17.46
2022-10-21T12:15:36.020Z,17.41
2022-10-21T12:16:36.029Z,17.49
2022-10-21T12:18:36.010Z,17.48
2022-10-21T12:19:35.978Z,17.55
2022-10-21T12:20:35.990Z,17.49
2022-10-21T12:21:35.965Z,17.52
2022-10-21T12:22:36.315Z,17.51
2022-10-21T12:23:35.944Z,17.51
2022-10-21T12:24:35.938Z,17.59
2022-10-21T12:25:35.957Z,17.64
2022-10-21T12:26:35.936Z,17.59
2022-10-21T12:27:36.106Z,17.59
2022-10-21T12:28:35.878Z,17.63
2022-10-21T12:29:35.883Z,17.68
2022-10-21T12:30:36.107Z,17.66
2022-10-21T12:31:35.882Z,17.70
2022-10-21T12:32:35.864Z,17.72
2022-10-21T12:33:35.827Z,17.71
2022-10-21T12:34:35.814Z,17.75
2022-10-21T12:35:35.866Z,17.74
2022-10-21T12:36:35.804Z,17.72
2022-10-21T12:37:35.999Z,17.72
2022-10-21T12:38:35.767Z,17.72
2022-10-21T12:39:35.753Z,17.68
2022-10-21T12:40:35.746Z,17.79
2022-10-21T12:41:35.738Z,17.71
2022-10-21T12:42:35.730Z,17.78
2022-10-21T12:43:35.724Z,17.79
2022-10-21T12:44:35.775Z,17.78
2022-10-21T12:45:35.688Z,17.77
2022-10-21T12:46:39.067Z,17.74
2022-10-21T12:47:35.925Z,17.79
2022-10-21T12:48:35.658Z,17.78
2022-10-21T12:49:35.661Z,17.82
2022-10-21T12:50:35.650Z,17.75
2022-10-21T12:51:35.620Z,17.72
2022-10-21T12:52:35.634Z,17.82
2022-10-21T12:53:35.603Z,17.82
2022-10-21T12:54:35.614Z,17.84
2022-10-21T12:55:35.594Z,17.84
2022-10-21T12:56:35.570Z,17.93
2022-10-21T12:57:35.560Z,18.02
2022-10-21T12:58:35.553Z,18.02
2022-10-21T12:59:35.567Z,18.11
2022-10-21T13:00:35.728Z,18.12
2022-10-21T13:01:35.517Z,18.21
2022-10-21T13:02:35.535Z,18.30
2022-10-21T13:03:35.521Z,18.29
2022-10-21T13:04:35.500Z,18.41
2022-10-21T13:05:35.475Z,18.41
2022-10-21T13:06:35.465Z,18.41
2022-10-21T13:07:35.481Z,18.48
2022-10-21T13:08:35.491Z,18.45
2022-10-21T13:09:35.431Z,18.45
2022-10-21T13:10:35.441Z,18.47
2022-10-21T13:11:35.408Z,18.44
2022-10-21T13:12:35.426Z,18.57
2022-10-21T13:13:35.397Z,18.55
2022-10-21T13:14:36.462Z,18.54
2022-10-21T13:15:35.368Z,18.54
2022-10-21T13:16:35.377Z,18.48
2022-10-21T13:17:35.349Z,18.55
2022-10-21T13:18:35.353Z,18.55
2022-10-21T13:19:35.331Z,18.42
2022-10-21T13:20:35.327Z,18.48
2022-10-21T13:21:35.351Z,18.45
2022-10-21T13:22:35.289Z,18.54
2022-10-21T13:23:35.277Z,18.44
2022-10-21T13:24:35.279Z,18.50
2022-10-21T13:25:35.262Z,18.37
2022-10-21T13:26:35.293Z,18.37
2022-10-21T13:28:35.233Z,18.36
2022-10-21T13:29:35.227Z,18.48
2022-10-21T13:30:35.215Z,18.39
2022-10-21T13:31:35.233Z,18.39
2022-10-21T13:32:35.203Z,18.48
2022-10-21T13:33:35.192Z,18.42
2022-10-21T13:34:37.969Z,18.42
2022-10-21T13:35:36.158Z,18.51
2022-10-21T13:37:35.153Z,18.37
2022-10-21T13:38:35.132Z,18.44
2022-10-21T13:39:35.141Z,18.48
2022-10-21T13:40:35.093Z,18.44
2022-10-21T13:41:35.088Z,18.44
2022-10-21T13:42:35.112Z,18.33
2022-10-21T13:43:35.065Z,18.44
2022-10-21T13:44:35.057Z,18.33
2022-10-21T13:45:35.091Z,18.44
2022-10-21T13:46:37.872Z,18.45
2022-10-21T13:47:36.165Z,18.36
2022-10-21T13:48:35.015Z,18.35
2022-10-21T13:49:34.998Z,18.32
2022-10-21T13:50:35.015Z,18.42
2022-10-21T13:51:34.997Z,18.44
2022-10-21T13:52:34.972Z,18.33
2022-10-21T13:53:34.986Z,18.42
2022-10-21T13:54:35.032Z,18.37
2022-10-21T13:55:34.962Z,18.42
2022-10-21T13:56:34.956Z,18.42
2022-10-21T13:57:34.914Z,18.41
2022-10-21T13:58:34.938Z,18.42
2022-10-21T13:59:34.908Z,18.37
2022-10-21T14:00:34.882Z,18.42
2022-10-21T14:01:34.938Z,18.47
2022-10-21T14:02:34.866Z,18.42
2022-10-21T14:03:34.936Z,18.35
2022-10-21T14:04:34.862Z,18.42
2022-10-21T14:05:34.837Z,18.37
2022-10-21T14:06:34.864Z,18.33
2022-10-21T14:07:34.826Z,18.44
2022-10-21T14:08:34.852Z,18.39
2022-10-21T14:09:34.797Z,18.44
2022-10-21T14:10:34.780Z,18.37
2022-10-21T14:11:37.333Z,18.45
2022-10-21T14:12:34.772Z,18.47
2022-10-21T14:13:34.763Z,18.32
2022-10-21T14:14:34.736Z,18.33
2022-10-21T14:15:34.722Z,18.35
2022-10-21T14:16:34.728Z,18.30
2022-10-21T14:17:34.697Z,18.33
2022-10-21T14:18:37.274Z,18.29
2022-10-21T14:19:34.706Z,18.32
2022-10-21T14:20:34.684Z,18.29
2022-10-21T14:21:34.666Z,18.21
2022-10-21T14:22:34.691Z,18.27
2022-10-21T14:23:34.670Z,18.20
2022-10-21T14:24:34.628Z,18.29
2022-10-21T14:25:34.617Z,18.23
2022-10-21T14:26:34.603Z,18.18
2022-10-21T14:27:34.594Z,18.14
2022-10-21T14:28:34.619Z,18.25
2022-10-21T14:29:34.589Z,18.12
2022-10-21T14:30:34.574Z,18.12
2022-10-21T14:31:34.581Z,18.14
2022-10-21T14:32:34.573Z,18.14
2022-10-21T14:33:34.530Z,18.14
2022-10-21T14:34:34.517Z,18.15
2022-10-21T14:35:34.524Z,18.10
2022-10-21T14:36:34.517Z,18.00
2022-10-21T14:37:34.499Z,18.05
2022-10-21T14:38:34.493Z,17.96
2022-10-21T14:39:34.509Z,17.99
2022-10-21T14:40:34.466Z,18.03
2022-10-21T14:41:34.455Z,17.99
2022-10-21T14:42:34.440Z,17.97
2022-10-21T14:43:34.456Z,17.95
2022-10-21T14:44:34.413Z,17.99
2022-10-21T14:45:34.402Z,18.02
2022-10-21T14:46:34.437Z,17.95
2022-10-21T14:47:34.376Z,17.95
2022-10-21T14:48:34.367Z,17.89
2022-10-21T14:49:34.361Z,17.95
2022-10-21T14:50:34.398Z,17.79
2022-10-21T14:51:34.357Z,17.92
2022-10-21T14:52:34.325Z,17.93
2022-10-21T14:53:34.316Z,17.93
2022-10-21T14:54:34.327Z,17.82
2022-10-21T14:55:34.311Z,17.93
2022-10-21T14:56:34.296Z,17.86
2022-10-21T14:57:34.280Z,17.92
2022-10-21T14:58:34.259Z,17.86
2022-10-21T14:59:34.275Z,17.86
2022-10-21T15:00:34.267Z,17.89
2022-10-21T15:01:34.237Z,17.95
2022-10-21T15:02:34.380Z,17.86
2022-10-21T15:03:34.235Z,17.86
2022-10-21T15:04:34.193Z,17.79
2022-10-21T15:05:34.210Z,17.92
2022-10-21T15:06:34.175Z,17.92
2022-10-21T15:07:34.201Z,17.84
2022-10-21T15:08:34.199Z,17.92
2022-10-21T15:09:34.164Z,17.89
2022-10-21T15:10:34.155Z,17.92
2022-10-21T15:11:34.128Z,17.92
2022-10-21T15:12:34.110Z,17.93
2022-10-21T15:13:34.145Z,17.89
2022-10-21T15:14:34.112Z,17.87
2022-10-21T15:15:34.075Z,17.96
2022-10-21T15:17:34.053Z,17.79
2022-10-21T15:18:34.080Z,17.77
2022-10-21T15:19:34.059Z,17.84
2022-10-21T15:20:34.042Z,17.90
2022-10-21T15:21:34.022Z,17.82
2022-10-21T15:22:34.013Z,17.89
2022-10-21T15:23:34.024Z,17.82
2022-10-21T15:24:34.001Z,17.77
2022-10-21T15:25:34.030Z,17.89
2022-10-21T15:26:33.985Z,17.77
2022-10-21T15:27:36.639Z,17.77
2022-10-21T15:28:33.946Z,17.75
2022-10-21T15:29:33.980Z,17.66
2022-10-21T15:30:33.920Z,17.77
2022-10-21T15:31:33.913Z,17.64
2022-10-21T15:32:33.917Z,17.58
2022-10-21T15:33:33.894Z,17.59
2022-10-21T15:34:33.976Z,17.54
2022-10-21T15:35:33.867Z,17.55
2022-10-21T15:36:33.849Z,17.44
2022-10-21T15:37:33.854Z,17.52
2022-10-21T15:38:33.847Z,17.43
2022-10-21T15:39:33.849Z,17.54
2022-10-21T15:40:33.811Z,17.55
2022-10-21T15:41:33.801Z,17.49
2022-10-21T15:42:33.824Z,17.49
2022-10-21T15:43:33.787Z,17.44
2022-10-21T15:44:33.820Z,17.46
2022-10-21T15:45:33.778Z,17.52
2022-10-21T15:46:33.764Z,17.49
2022-10-21T15:47:33.758Z,17.41
2022-10-21T15:48:33.720Z,17.46
2022-10-21T15:49:33.712Z,17.44
2022-10-21T15:50:33.727Z,17.44
2022-10-21T15:51:33.697Z,17.43
2022-10-21T15:52:33.706Z,17.36
2022-10-21T15:53:33.669Z,17.25
2022-10-21T15:54:33.681Z,17.33
2022-10-21T15:55:33.675Z,17.36
2022-10-21T15:56:33.641Z,17.26
2022-10-21T15:57:33.663Z,17.30
2022-10-21T15:58:33.665Z,17.26
2022-10-21T15:59:33.602Z,17.12
2022-10-21T16:00:37.358Z,17.15
2022-10-21T16:01:34.653Z,17.19
2022-10-21T16:02:33.581Z,17.14
2022-10-21T16:03:33.622Z,17.15
2022-10-21T16:04:33.556Z,17.08
2022-10-21T16:05:33.563Z,17.11
2022-10-21T16:06:33.534Z,17.12
2022-10-21T16:07:33.536Z,17.12
2022-10-21T16:08:33.531Z,17.14
2022-10-21T16:09:33.507Z,17.12
2022-10-21T16:10:33.519Z,17.11
2022-10-21T16:11:40.726Z,17.15
2022-10-21T16:12:34.488Z,17.16
2022-10-21T16:13:33.467Z,17.16
2022-10-21T16:14:33.461Z,17.15
2022-10-21T16:15:33.456Z,17.11
2022-10-21T16:16:33.418Z,17.15
2022-10-21T16:17:33.432Z,17.21
2022-10-21T16:18:33.408Z,17.01
2022-10-21T16:19:33.397Z,17.06
2022-10-21T16:20:33.427Z,17.08
2022-10-21T16:21:33.364Z,17.00
2022-10-21T16:22:33.376Z,17.03
2022-10-21T16:23:33.369Z,17.04
2022-10-21T16:24:33.336Z,17.06
2022-10-21T16:25:33.355Z,17.03
2022-10-21T16:26:33.312Z,16.98
2022-10-21T16:27:43.732Z,16.96
2022-10-21T16:28:34.290Z,16.88
2022-10-21T16:29:33.289Z,16.93
2022-10-21T16:30:33.281Z,16.89
2022-10-21T16:31:33.300Z,16.86
2022-10-21T16:32:33.320Z,16.83
2022-10-21T16:33:33.227Z,16.82
2022-10-21T16:34:33.229Z,16.73
2022-10-21T16:35:33.221Z,16.60
2022-10-21T16:36:33.211Z,16.63
2022-10-21T16:37:33.229Z,16.53
2022-10-21T16:38:33.216Z,16.57
2022-10-21T16:39:33.177Z,16.53
2022-10-21T16:40:33.159Z,16.52
2022-10-21T16:41:33.148Z,16.56
2022-10-21T16:42:33.137Z,16.45
2022-10-21T16:43:33.159Z,16.49
2022-10-21T16:44:33.133Z,16.39
2022-10-21T16:45:33.145Z,16.38
2022-10-21T16:46:33.108Z,16.31
2022-10-21T16:47:33.100Z,16.31
2022-10-21T16:48:33.075Z,16.24
2022-10-21T16:49:33.063Z,16.25
2022-10-21T16:50:33.049Z,16.25
2022-10-21T16:51:33.083Z,16.14
2022-10-21T16:52:33.036Z,16.20
2022-10-21T16:53:33.049Z,16.15
2022-10-21T16:54:33.009Z,16.15
2022-10-21T16:55:32.993Z,16.12
2022-10-21T16:56:32.985Z,16.15
2022-10-21T16:57:32.987Z,16.04
2022-10-21T16:58:32.978Z,16.04
2022-10-21T16:59:32.959Z,16.07
2022-10-21T17:00:32.940Z,16.11
2022-10-21T17:01:33.012Z,16.05
2022-10-21T17:02:34.892Z,15.94
2022-10-21T17:03:32.926Z,15.94
2022-10-21T17:04:32.907Z,15.90
2022-10-21T17:06:32.871Z,15.92
2022-10-21T17:07:32.870Z,15.89
2022-10-21T17:08:32.908Z,15.93
2022-10-21T17:09:32.868Z,15.89
2022-10-21T17:10:32.954Z,15.86
2022-10-21T17:11:32.860Z,15.84
2022-10-21T17:12:32.809Z,15.80
2022-10-21T17:13:32.794Z,15.83
2022-10-21T17:14:32.817Z,15.86
2022-10-21T17:15:32.809Z,15.84
2022-10-21T17:16:32.770Z,15.80
2022-10-21T17:17:32.757Z,15.74
2022-10-21T17:18:32.759Z,15.83
2022-10-21T17:19:32.754Z,15.75
2022-10-21T17:20:32.758Z,15.78
2022-10-21T17:21:32.710Z,15.72
2022-10-21T17:22:32.725Z,15.76
2022-10-21T17:23:32.742Z,15.76
2022-10-21T17:24:32.722Z,15.80
2022-10-21T17:25:32.663Z,15.87
2022-10-21T17:26:32.673Z,15.78
2022-10-21T17:27:32.695Z,15.76
2022-10-21T17:28:32.626Z,15.76
2022-10-21T17:29:32.640Z,15.74